Time;durP1;ratioP1;P1;durP2;ratioP2;P2;SDS_P1;SDS_P2;PMS_P1;PMS_P2;Temp;Humidity;BMP_temperature;BMP_pressure;BME280_temperature;BME280_humidity;BME280_pressure;Samples;Min_cycle;Max_cycle;Signal;HPM_P1;HPM_P2
2022/08/26 00:00:33;;;;;;;14.02;5.00;;;27.70;67.60;;;;;;5057117;28;20017;-69
2022/08/26 00:02:59;;;;;;;9.75;4.65;;;27.60;67.90;;;;;;5057122;28;20028;-68
2022/08/26 00:05:25;;;;;;;9.43;4.60;;;27.60;67.90;;;;;;5056402;28;20096;-68
2022/08/26 00:07:51;;;;;;;9.90;4.35;;;27.70;68.30;;;;;;5056104;28;20076;-69
2022/08/26 00:10:18;;;;;;;10.10;4.65;;;27.70;68.10;;;;;;5055766;28;20033;-68
2022/08/26 00:12:44;;;;;;;9.88;4.43;;;27.70;68.00;;;;;;5055769;28;20112;-70
2022/08/26 00:15:12;;;;;;;12.10;4.47;;;27.70;68.10;;;;;;5055723;28;20025;-69
2022/08/26 00:17:38;;;;;;;9.98;4.32;;;27.70;68.10;;;;;;5055715;28;20381;-69
2022/08/26 00:20:06;;;;;;;11.32;4.30;;;27.70;68.10;;;;;;5055604;28;20025;-68
2022/08/26 00:22:32;;;;;;;8.48;4.28;;;27.70;68.20;;;;;;5055651;28;20074;-68
2022/08/26 00:24:58;;;;;;;8.85;4.43;;;27.70;68.10;;;;;;5055634;28;20108;-69
2022/08/26 00:27:24;;;;;;;6.50;4.47;;;27.70;68.00;;;;;;5055523;28;20108;-68
2022/08/26 00:29:49;;;;;;;9.75;4.43;;;27.60;67.80;;;;;;5055512;28;20029;-68
2022/08/26 00:32:15;;;;;;;8.27;4.68;;;27.60;67.40;;;;;;5037957;28;20108;-71
2022/08/26 00:34:41;;;;;;;8.32;4.43;;;27.60;67.20;;;;;;5055922;28;20385;-70
2022/08/26 00:37:06;;;;;;;10.00;4.43;;;27.60;67.10;;;;;;5055252;28;20033;-69
2022/08/26 00:39:32;;;;;;;11.05;4.95;;;27.50;66.90;;;;;;5055285;28;20470;-68
2022/08/26 00:41:59;;;;;;;8.30;4.75;;;27.50;67.00;;;;;;5055392;28;20025;-70
2022/08/26 00:44:25;;;;;;;9.48;4.60;;;27.50;66.90;;;;;;5055174;28;20029;-68
2022/08/26 00:46:57;;;;;;;9.57;4.80;;;27.40;66.90;;;;;;5055263;28;20091;-67
2022/08/26 00:49:33;;;;;;;7.93;4.65;;;27.40;66.80;;;;;;5055111;28;20112;-69
2022/08/26 00:52:02;;;;;;;7.88;4.50;;;27.40;66.40;;;;;;5054986;28;20485;-69
2022/08/26 00:54:34;;;;;;;8.23;3.95;;;27.40;66.30;;;;;;5054659;28;20025;-68
2022/08/26 00:57:10;;;;;;;8.45;4.15;;;27.40;65.70;;;;;;5054897;28;20025;-69
2022/08/26 00:59:37;;;;;;;10.00;4.47;;;27.40;65.30;;;;;;5054892;28;20025;-69
2022/08/26 01:02:03;;;;;;;5.63;3.70;;;27.40;64.80;;;;;;5053544;28;20029;-70
2022/08/26 01:04:32;;;;;;;7.05;3.85;;;27.40;64.70;;;;;;5055000;28;20083;-70
2022/08/26 01:06:57;;;;;;;7.28;3.88;;;27.40;64.20;;;;;;5054836;28;20535;-68
2022/08/26 01:09:23;;;;;;;12.73;4.07;;;27.40;64.30;;;;;;5036869;28;20049;-69
2022/08/26 01:11:53;;;;;;;6.38;3.88;;;27.40;64.20;;;;;;5054731;28;20056;-68
2022/08/26 01:14:21;;;;;;;9.20;4.75;;;27.40;64.00;;;;;;5054815;28;20385;-68
2022/08/26 01:16:47;;;;;;;8.70;4.30;;;27.30;64.40;;;;;;5054782;28;20025;-67
2022/08/26 01:19:25;;;;;;;6.80;4.30;;;27.30;64.10;;;;;;5054718;28;20028;-70
2022/08/26 01:21:58;;;;;;;9.93;4.32;;;27.30;64.00;;;;;;5054625;28;20060;-68
2022/08/26 01:24:26;;;;;;;6.78;4.05;;;27.30;63.80;;;;;;5054451;28;20032;-70
2022/08/26 01:27:06;;;;;;;8.55;4.03;;;27.30;64.40;;;;;;5054550;28;20025;-68
2022/08/26 01:29:34;;;;;;;8.38;3.38;;;27.20;63.70;;;;;;5036556;28;20028;-69
2022/08/26 01:32:03;;;;;;;7.18;3.58;;;27.10;64.00;;;;;;5055637;28;20083;-69
2022/08/26 01:34:33;;;;;;;7.65;3.70;;;27.20;64.10;;;;;;5057532;28;20055;-69
2022/08/26 01:37:15;;;;;;;8.32;3.30;;;27.10;63.90;;;;;;5036607;28;20064;-69
2022/08/26 01:39:43;;;;;;;6.45;3.40;;;27.10;63.90;;;;;;5054339;28;20026;-68
2022/08/26 01:42:12;;;;;;;8.13;3.55;;;27.10;63.70;;;;;;5054651;28;20512;-69
2022/08/26 01:44:46;;;;;;;9.43;3.85;;;27.10;63.50;;;;;;5055696;28;20024;-68
2022/08/26 01:47:16;;;;;;;7.40;2.95;;;27.10;63.40;;;;;;5054298;28;20025;-69
2022/08/26 01:49:45;;;;;;;6.72;3.15;;;27.00;63.30;;;;;;5053575;28;20017;-68
2022/08/26 01:52:15;;;;;;;5.90;2.90;;;27.00;63.40;;;;;;5054049;28;20036;-70
2022/08/26 01:54:41;;;;;;;6.40;2.90;;;26.80;63.40;;;;;;5054556;28;20017;-69
2022/08/26 01:57:07;;;;;;;5.63;2.83;;;26.80;63.60;;;;;;5054277;28;20029;-70
2022/08/26 01:59:33;;;;;;;7.20;2.90;;;26.80;63.50;;;;;;5054178;28;20032;-68
2022/08/26 02:02:00;;;;;;;7.55;2.80;;;26.80;63.60;;;;;;5053703;28;20477;-70
2022/08/26 02:04:37;;;;;;;5.32;2.65;;;26.80;63.50;;;;;;5053571;28;20381;-69
2022/08/26 02:07:05;;;;;;;5.50;2.88;;;26.80;63.50;;;;;;5053597;28;20025;-68
2022/08/26 02:09:31;;;;;;;9.85;3.25;;;26.80;63.40;;;;;;5053434;28;20053;-70
2022/08/26 02:12:00;;;;;;;6.95;2.80;;;26.80;63.60;;;;;;5053485;28;20108;-70
2022/08/26 02:14:33;;;;;;;6.18;3.22;;;26.70;63.30;;;;;;5053438;28;20017;-68
2022/08/26 02:16:59;;;;;;;8.88;2.95;;;26.70;63.50;;;;;;5053453;28;20061;-67
2022/08/26 02:19:31;;;;;;;6.10;2.83;;;26.70;63.40;;;;;;5053571;28;20112;-68
2022/08/26 02:22:00;;;;;;;9.32;3.05;;;26.70;63.30;;;;;;5053280;28;20064;-69
2022/08/26 02:24:49;;;;;;;5.97;2.80;;;26.60;63.40;;;;;;5053665;28;20025;-68
2022/08/26 02:27:18;;;;;;;5.93;2.65;;;26.60;64.10;;;;;;5054500;28;20036;-69
2022/08/26 02:29:49;;;;;;;5.55;2.60;;;26.50;63.60;;;;;;5055059;28;20108;-68
2022/08/26 02:32:14;;;;;;;5.18;2.60;;;26.50;63.90;;;;;;5053934;28;20033;-70
2022/08/26 02:34:40;;;;;;;6.68;2.92;;;26.50;64.10;;;;;;5053404;28;20025;-68
2022/08/26 02:37:09;;;;;;;4.40;2.35;;;26.50;64.00;;;;;;5053321;28;20056;-69
2022/08/26 02:39:36;;;;;;;6.65;2.92;;;26.50;64.00;;;;;;5036348;28;20473;-70
2022/08/26 02:42:04;;;;;;;6.35;3.10;;;26.50;64.00;;;;;;5053159;28;20089;-68
2022/08/26 02:44:30;;;;;;;8.23;2.92;;;26.50;64.20;;;;;;5052851;28;20493;-69
2022/08/26 02:46:56;;;;;;;6.10;2.85;;;26.50;64.20;;;;;;5053068;28;20025;-69
2022/08/26 02:49:23;;;;;;;5.70;2.90;;;26.40;64.10;;;;;;5035049;28;20043;-68
2022/08/26 02:51:49;;;;;;;4.70;2.70;;;26.40;64.10;;;;;;5035427;28;20041;-69
2022/08/26 02:54:17;;;;;;;9.70;3.00;;;26.40;64.30;;;;;;5053290;28;20017;-67
2022/08/26 02:56:43;;;;;;;4.78;3.00;;;26.30;64.20;;;;;;5052988;28;20025;-68
2022/08/26 02:59:11;;;;;;;5.93;2.85;;;26.40;64.30;;;;;;5052667;28;20051;-68
2022/08/26 03:01:37;;;;;;;8.90;2.88;;;26.30;64.20;;;;;;5051722;28;20060;-68
2022/08/26 03:04:05;;;;;;;5.57;3.00;;;26.30;64.20;;;;;;5052623;28;20052;-68
2022/08/26 03:06:31;;;;;;;4.32;2.30;;;26.30;64.30;;;;;;5052775;28;20485;-71
2022/08/26 03:08:57;;;;;;;7.97;2.60;;;26.30;64.60;;;;;;5052750;28;20052;-68
2022/08/26 03:11:23;;;;;;;6.63;2.95;;;26.30;64.50;;;;;;5052701;28;20073;-68
2022/08/26 03:13:49;;;;;;;7.38;2.88;;;26.30;64.50;;;;;;5034567;28;20059;-69
2022/08/26 03:16:16;;;;;;;11.85;3.55;;;26.30;64.40;;;;;;5052589;28;20470;-68
2022/08/26 03:18:41;;;;;;;7.15;2.83;;;26.30;64.50;;;;;;5052736;28;20017;-69
2022/08/26 03:21:11;;;;;;;8.35;2.80;;;26.20;64.50;;;;;;5052581;28;20079;-70
2022/08/26 03:23:38;;;;;;;10.05;2.90;;;26.20;64.50;;;;;;5052573;28;20481;-67
2022/08/26 03:26:05;;;;;;;5.22;2.72;;;26.20;64.60;;;;;;5052763;28;20032;-68
2022/08/26 03:28:31;;;;;;;8.98;3.03;;;26.10;64.50;;;;;;5052619;28;20029;-68
2022/08/26 03:30:57;;;;;;;9.95;3.00;;;26.10;64.60;;;;;;5052544;28;20052;-69
2022/08/26 03:33:24;;;;;;;6.40;2.80;;;26.10;64.80;;;;;;5052744;28;20482;-68
2022/08/26 03:35:51;;;;;;;9.27;2.75;;;26.10;64.90;;;;;;5052933;28;20406;-69
2022/08/26 03:38:19;;;;;;;7.68;2.80;;;26.10;64.90;;;;;;5052715;28;20025;-69
2022/08/26 03:40:46;;;;;;;5.80;2.70;;;26.00;65.00;;;;;;5034851;28;20124;-69
2022/08/26 03:43:12;;;;;;;5.40;2.95;;;26.00;64.90;;;;;;5052606;28;20036;-67
2022/08/26 03:45:38;;;;;;;7.70;2.70;;;26.00;65.10;;;;;;5052906;28;20363;-69
2022/08/26 03:48:04;;;;;;;4.60;2.58;;;26.00;64.80;;;;;;5052556;28;20028;-69
2022/08/26 03:50:31;;;;;;;5.80;2.67;;;26.00;64.90;;;;;;5053390;28;20108;-67
2022/08/26 03:52:57;;;;;;;4.63;2.85;;;26.00;65.10;;;;;;5052990;28;20029;-69
2022/08/26 03:55:25;;;;;;;7.20;2.55;;;25.90;65.00;;;;;;5052186;28;20369;-69
2022/08/26 03:57:51;;;;;;;4.60;2.83;;;26.00;65.10;;;;;;5052283;28;20430;-69
2022/08/26 04:00:17;;;;;;;4.68;2.72;;;25.90;65.10;;;;;;5052523;28;20021;-68
2022/08/26 04:02:44;;;;;;;4.88;2.90;;;25.90;65.60;;;;;;5052560;28;20025;-70
2022/08/26 04:05:12;;;;;;;10.57;3.00;;;25.90;65.20;;;;;;5052516;28;20028;-68
2022/08/26 04:07:39;;;;;;;5.00;2.72;;;25.90;65.20;;;;;;5052236;28;20041;-71
2022/08/26 04:10:06;;;;;;;5.68;2.83;;;25.90;65.30;;;;;;5052421;28;20040;-69
2022/08/26 04:12:32;;;;;;;6.72;2.47;;;25.90;65.30;;;;;;5055122;28;20442;-70
2022/08/26 04:14:58;;;;;;;6.80;2.80;;;25.90;65.20;;;;;;5055888;28;20029;-70
2022/08/26 04:17:25;;;;;;;9.75;2.83;;;25.90;65.20;;;;;;5055651;28;20056;-68
2022/08/26 04:19:53;;;;;;;8.52;3.03;;;26.00;65.20;;;;;;5038136;28;20419;-69
2022/08/26 04:22:19;;;;;;;7.05;2.90;;;25.90;65.10;;;;;;5051976;28;20041;-71
2022/08/26 04:24:45;;;;;;;7.53;3.08;;;25.90;65.30;;;;;;5055476;28;20017;-69
2022/08/26 04:27:11;;;;;;;6.53;2.78;;;25.90;65.40;;;;;;5055600;28;20029;-70
2022/08/26 04:29:40;;;;;;;11.00;3.40;;;25.80;65.30;;;;;;5055379;28;20075;-68
2022/08/26 04:32:07;;;;;;;5.03;2.83;;;25.80;65.40;;;;;;5055195;28;20059;-68
2022/08/26 04:34:33;;;;;;;8.73;3.15;;;25.90;65.40;;;;;;5055247;28;20028;-68
2022/08/26 04:36:59;;;;;;;7.55;3.22;;;25.90;65.40;;;;;;5055254;28;20024;-68
2022/08/26 04:39:25;;;;;;;8.23;3.30;;;25.80;65.50;;;;;;5055214;28;20048;-71
2022/08/26 04:41:53;;;;;;;6.97;2.97;;;25.80;65.60;;;;;;5055151;28;20361;-70
2022/08/26 04:44:20;;;;;;;8.32;3.00;;;25.80;65.70;;;;;;5055146;28;20037;-67
2022/08/26 04:46:46;;;;;;;7.75;2.70;;;25.80;65.80;;;;;;5055306;28;20050;-69
2022/08/26 04:49:12;;;;;;;6.60;2.70;;;25.80;65.60;;;;;;5055107;28;20385;-69
2022/08/26 04:51:39;;;;;;;7.03;2.78;;;25.80;65.70;;;;;;5055047;28;20505;-71
2022/08/26 04:54:05;;;;;;;6.70;3.00;;;25.90;65.60;;;;;;5054992;28;20017;-69
2022/08/26 04:56:37;;;;;;;9.48;3.00;;;25.90;65.70;;;;;;5053763;28;20116;-71
2022/08/26 04:59:06;;;;;;;13.07;3.58;;;25.90;65.50;;;;;;5055222;28;20422;-69
2022/08/26 05:01:32;;;;;;;6.10;3.30;;;25.90;65.60;;;;;;5037043;28;20029;-72
2022/08/26 05:04:00;;;;;;;8.13;3.50;;;25.90;65.60;;;;;;5054925;28;20032;-69
2022/08/26 05:06:26;;;;;;;7.78;2.97;;;25.80;65.60;;;;;;5054783;28;20036;-70
2022/08/26 05:08:53;;;;;;;8.15;3.33;;;25.70;65.80;;;;;;5054631;28;20056;-67
2022/08/26 05:11:19;;;;;;;5.20;2.88;;;25.80;66.00;;;;;;5054832;28;20056;-70
2022/08/26 05:13:46;;;;;;;5.85;2.88;;;25.80;65.90;;;;;;5054633;28;20400;-69
2022/08/26 05:16:13;;;;;;;7.20;3.67;;;25.80;65.90;;;;;;5054780;28;20025;-71
2022/08/26 05:18:42;;;;;;;10.77;3.58;;;25.80;65.90;;;;;;5051258;28;20408;-69
2022/08/26 05:21:17;;;;;;;5.95;2.80;;;25.90;65.90;;;;;;5054579;28;20057;-71
2022/08/26 05:23:42;;;;;;;7.03;2.60;;;25.90;65.70;;;;;;5035988;28;20026;-70
2022/08/26 05:26:08;;;;;;;8.25;2.80;;;25.90;65.70;;;;;;5054752;28;20039;-71
2022/08/26 05:28:34;;;;;;;8.65;3.22;;;25.90;65.60;;;;;;5054478;28;20486;-71
2022/08/26 05:31:00;;;;;;;9.25;3.22;;;25.90;65.50;;;;;;5054228;28;20075;-68
2022/08/26 05:33:26;;;;;;;8.00;3.10;;;26.00;65.60;;;;;;5054101;28;20029;-71
2022/08/26 05:35:51;;;;;;;8.40;3.33;;;25.90;65.40;;;;;;5054297;28;20070;-70
2022/08/26 05:38:20;;;;;;;6.85;2.97;;;25.90;65.50;;;;;;5054083;28;20454;-71
2022/08/26 05:40:48;;;;;;;6.55;3.10;;;25.90;65.40;;;;;;5054297;28;20081;-71
2022/08/26 05:43:15;;;;;;;13.95;3.20;;;26.00;65.40;;;;;;5054457;28;20028;-70
2022/08/26 05:45:47;;;;;;;7.93;2.88;;;26.10;65.00;;;;;;5054020;28;20028;-70
2022/08/26 05:48:15;;;;;;;6.10;3.28;;;26.20;65.00;;;;;;5053857;28;20025;-69
2022/08/26 05:50:45;;;;;;;10.68;3.25;;;26.30;64.60;;;;;;5053932;28;20033;-71
2022/08/26 05:53:12;;;;;;;9.80;3.08;;;26.60;63.90;;;;;;5053972;28;20025;-71
2022/08/26 05:55:49;;;;;;;6.75;3.40;;;26.80;63.10;;;;;;5053848;28;20021;-71
2022/08/26 05:58:18;;;;;;;8.55;3.28;;;27.00;62.90;;;;;;5053819;28;20013;-72
2022/08/26 06:00:44;;;;;;;6.35;2.72;;;27.20;62.00;;;;;;5053650;28;20429;-69
2022/08/26 06:03:10;;;;;;;7.05;3.17;;;27.50;61.40;;;;;;5053620;28;20024;-71
2022/08/26 06:05:40;;;;;;;9.05;3.00;;;27.80;60.60;;;;;;5053375;28;20075;-69
2022/08/26 06:08:15;;;;;;;9.95;3.40;;;28.20;59.50;;;;;;5055211;28;20077;-72
2022/08/26 06:10:58;;;;;;;5.90;2.88;;;28.40;58.80;;;;;;5054363;28;20032;-72
2022/08/26 06:13:28;;;;;;;6.87;2.87;;;28.60;58.20;;;;;;5035890;28;20449;-72
2022/08/26 06:15:55;;;;;;;8.35;3.10;;;28.70;58.10;;;;;;5053278;28;20420;-73
2022/08/26 06:18:26;;;;;;;8.02;2.88;;;29.00;57.70;;;;;;5053585;28;20036;-73
2022/08/26 06:20:53;;;;;;;11.82;3.00;;;29.10;57.10;;;;;;5035927;28;20025;-74
2022/08/26 06:26:04;;;;;;;6.82;2.92;;;29.60;55.40;;;;;;5053827;28;20036;-71
2022/08/26 06:28:30;;;;;;;10.43;3.13;;;29.80;55.20;;;;;;5053187;28;20079;-69
2022/08/26 06:30:56;;;;;;;5.75;2.90;;;30.00;55.10;;;;;;5053217;28;20021;-72
2022/08/26 06:33:22;;;;;;;7.55;2.80;;;30.20;54.80;;;;;;5053191;28;20075;-70
2022/08/26 06:35:49;;;;;;;8.52;3.42;;;30.30;54.40;;;;;;5052946;28;20028;-69
2022/08/26 06:38:16;;;;;;;7.35;2.97;;;30.40;54.00;;;;;;5051936;28;20028;-71
2022/08/26 06:40:47;;;;;;;4.97;2.55;;;30.50;53.80;;;;;;5053596;28;20064;-72
2022/08/26 06:43:17;;;;;;;7.47;2.70;;;30.60;53.60;;;;;;5052959;28;20033;-75
2022/08/26 06:45:44;;;;;;;6.97;2.55;;;30.70;51.70;;;;;;5053202;28;20036;-73
2022/08/26 06:48:12;;;;;;;7.70;3.42;;;31.00;52.80;;;;;;5052864;28;20067;-70
2022/08/26 06:50:38;;;;;;;8.48;2.92;;;31.20;52.40;;;;;;5052515;28;20070;-70
2022/08/26 06:53:03;;;;;;;7.80;3.65;;;31.30;52.20;;;;;;5052793;28;20021;-70
2022/08/26 06:55:29;;;;;;;6.57;2.72;;;31.30;52.30;;;;;;5052862;28;20474;-70
2022/08/26 06:57:56;;;;;;;7.72;2.80;;;31.40;51.80;;;;;;5052923;28;20013;-69
2022/08/26 07:00:22;;;;;;;6.95;3.35;;;31.50;51.60;;;;;;5052765;28;20021;-69
2022/08/26 07:02:48;;;;;;;8.77;3.00;;;31.60;51.40;;;;;;5052697;28;20080;-70
2022/08/26 07:05:14;;;;;;;10.65;3.17;;;31.60;51.60;;;;;;5052567;28;20468;-70
2022/08/26 07:07:40;;;;;;;8.15;3.00;;;31.70;51.20;;;;;;5034768;28;20045;-70
2022/08/26 07:10:07;;;;;;;7.82;3.50;;;31.80;51.20;;;;;;5052787;28;20127;-71
2022/08/26 07:12:34;;;;;;;7.57;3.33;;;31.80;50.60;;;;;;5052506;28;20394;-69
2022/08/26 07:15:00;;;;;;;13.70;3.30;;;31.90;51.00;;;;;;5052216;28;20033;-69
2022/08/26 07:17:27;;;;;;;6.53;3.67;;;32.00;50.70;;;;;;5052457;28;20424;-69
2022/08/26 07:19:52;;;;;;;6.85;3.60;;;31.80;50.80;;;;;;5052412;28;20104;-69
2022/08/26 07:22:18;;;;;;;10.30;3.38;;;31.80;50.80;;;;;;5034514;28;20430;-69
2022/08/26 07:24:44;;;;;;;8.32;3.63;;;31.80;50.80;;;;;;5052166;28;20028;-69
2022/08/26 07:27:13;;;;;;;8.40;4.00;;;31.90;50.90;;;;;;5052058;28;20060;-70
2022/08/26 07:29:41;;;;;;;8.55;3.80;;;32.00;50.70;;;;;;5052160;28;20083;-70
2022/08/26 07:32:08;;;;;;;8.00;3.92;;;32.00;50.70;;;;;;5052356;28;20041;-71
2022/08/26 07:34:37;;;;;;;9.90;3.42;;;32.10;50.60;;;;;;5034586;28;20104;-68
2022/08/26 07:37:03;;;;;;;8.13;3.00;;;32.20;50.20;;;;;;5053207;28;20074;-70
2022/08/26 07:39:30;;;;;;;9.70;3.08;;;32.10;50.30;;;;;;5053215;28;20040;-68
2022/08/26 07:41:56;;;;;;;8.88;3.20;;;32.10;49.90;;;;;;5054122;28;20032;-69
2022/08/26 07:44:22;;;;;;;7.07;3.22;;;32.10;49.70;;;;;;5034931;28;20032;-68
2022/08/26 07:46:49;;;;;;;9.50;3.10;;;32.10;49.80;;;;;;5052487;28;20429;-68
2022/08/26 07:49:16;;;;;;;10.85;3.60;;;32.20;50.00;;;;;;5037872;28;20072;-69
2022/08/26 07:51:42;;;;;;;7.65;3.10;;;32.10;50.00;;;;;;5055800;28;20029;-69
2022/08/26 07:54:08;;;;;;;11.02;4.10;;;32.20;50.00;;;;;;5055793;28;20025;-68
2022/08/26 07:56:34;;;;;;;9.57;3.50;;;32.20;50.50;;;;;;5055651;28;20532;-68
2022/08/26 07:59:00;;;;;;;6.95;3.20;;;32.20;49.80;;;;;;5037794;28;20027;-69
2022/08/26 08:01:26;;;;;;;9.07;3.22;;;32.20;49.90;;;;;;5055633;28;20021;-70
2022/08/26 08:03:53;;;;;;;8.45;3.42;;;32.10;49.70;;;;;;5055732;28;20033;-69
2022/08/26 08:06:19;;;;;;;9.77;3.20;;;31.90;49.90;;;;;;5055502;28;20017;-70
2022/08/26 08:08:46;;;;;;;7.65;3.47;;;31.90;50.00;;;;;;5055384;28;20044;-68
2022/08/26 08:11:11;;;;;;;27.83;4.10;;;31.80;49.80;;;;;;5055412;28;20044;-68
2022/08/26 08:13:38;;;;;;;6.35;3.20;;;31.80;49.80;;;;;;5055154;28;20086;-68
2022/08/26 08:16:04;;;;;;;6.43;3.03;;;31.60;49.70;;;;;;5055130;28;20186;-69
2022/08/26 08:18:30;;;;;;;9.15;3.05;;;31.60;49.80;;;;;;5055174;28;20092;-68
2022/08/26 08:20:55;;;;;;;7.57;2.95;;;31.50;50.00;;;;;;5055205;28;20104;-70
2022/08/26 08:23:21;;;;;;;6.85;3.00;;;31.40;50.00;;;;;;5055588;28;20489;-69
2022/08/26 08:25:48;;;;;;;9.27;3.10;;;31.30;50.10;;;;;;5055125;28;20041;-68
2022/08/26 08:28:14;;;;;;;7.82;3.38;;;31.20;50.30;;;;;;5055005;28;20033;-71
2022/08/26 08:30:40;;;;;;;6.07;3.08;;;31.10;50.50;;;;;;5055119;28;20040;-70
2022/08/26 08:33:08;;;;;;;8.00;3.92;;;31.00;50.80;;;;;;5055052;28;20033;-71
2022/08/26 08:35:34;;;;;;;8.88;3.35;;;31.00;50.90;;;;;;5054762;28;20079;-70
2022/08/26 08:38:02;;;;;;;14.65;5.25;;;31.00;50.70;;;;;;5054705;28;20060;-72
2022/08/26 08:40:27;;;;;;;9.48;3.33;;;30.90;50.70;;;;;;5054739;28;20028;-71
2022/08/26 08:43:02;;;;;;;8.73;3.42;;;30.90;50.80;;;;;;5054764;28;20029;-69
2022/08/26 08:45:29;;;;;;;10.60;3.90;;;30.90;50.60;;;;;;5036868;28;20689;-70
2022/08/26 08:47:59;;;;;;;8.32;3.25;;;30.80;50.90;;;;;;5054637;28;20076;-70
2022/08/26 08:50:31;;;;;;;10.18;3.47;;;30.80;51.00;;;;;;5054528;28;20041;-73
2022/08/26 08:53:15;;;;;;;7.03;3.20;;;30.80;51.20;;;;;;5054801;28;20036;-72
2022/08/26 08:55:56;;;;;;;10.05;3.38;;;30.80;50.00;;;;;;5054682;28;20025;-71
2022/08/26 08:58:34;;;;;;;8.27;3.30;;;30.80;49.90;;;;;;5036690;28;20445;-71
2022/08/26 09:01:06;;;;;;;6.88;3.38;;;30.70;49.80;;;;;;5054687;28;20079;-72
2022/08/26 09:03:32;;;;;;;6.68;3.20;;;30.70;51.30;;;;;;5054414;28;20021;-71
2022/08/26 09:05:59;;;;;;;7.00;3.47;;;30.60;51.20;;;;;;5054884;28;20381;-71
2022/08/26 09:08:28;;;;;;;9.40;3.53;;;30.60;51.40;;;;;;5054893;28;20114;-72
2022/08/26 09:10:58;;;;;;;5.20;3.03;;;30.60;51.50;;;;;;5054207;28;20490;-69
2022/08/26 09:13:25;;;;;;;5.82;3.38;;;30.60;51.40;;;;;;5054312;28;20471;-70
2022/08/26 09:15:56;;;;;;;9.13;3.08;;;30.60;51.60;;;;;;5054294;28;20443;-69
2022/08/26 09:18:39;;;;;;;7.63;3.50;;;30.70;50.20;;;;;;5036038;28;20028;-70
2022/08/26 09:21:08;;;;;;;8.60;3.30;;;30.70;51.00;;;;;;5054214;28;20029;-72
2022/08/26 09:23:36;;;;;;;7.25;3.50;;;30.70;51.20;;;;;;5054409;28;20096;-70
2022/08/26 09:26:39;;;;;;;6.43;3.10;;;30.70;51.00;;;;;;5054933;28;20029;-69
2022/08/26 09:29:13;;;;;;;9.05;2.97;;;30.70;50.60;;;;;;4992792;28;20554;-70
2022/08/26 09:31:40;;;;;;;7.38;3.30;;;30.80;50.70;;;;;;4992818;28;20045;-70
2022/08/26 09:34:25;;;;;;;4.90;2.88;;;30.80;50.40;;;;;;5024661;28;20081;-70
2022/08/26 09:36:56;;;;;;;8.35;2.90;;;30.80;49.20;;;;;;5036427;28;20397;-69
2022/08/26 09:39:36;;;;;;;9.65;3.08;;;30.80;48.90;;;;;;5054450;28;20025;-70
2022/08/26 09:42:10;;;;;;;6.20;2.83;;;30.80;49.90;;;;;;5052820;28;20029;-69
2022/08/26 09:44:52;;;;;;;7.85;3.00;;;30.80;48.50;;;;;;5034003;28;20026;-70
2022/08/26 09:47:26;;;;;;;6.53;3.40;;;30.80;49.20;;;;;;5034072;28;20550;-72
2022/08/26 09:50:04;;;;;;;7.32;3.03;;;30.80;49.70;;;;;;5016036;28;20030;-69
2022/08/26 09:52:30;;;;;;;11.55;4.90;;;30.80;48.50;;;;;;5033695;28;20060;-70
2022/08/26 09:55:03;;;;;;;13.40;5.22;;;30.80;49.50;;;;;;5033623;28;20021;-72
2022/08/26 09:57:31;;;;;;;;;;;30.90;49.80;;;;;;5034004;28;20124;-73
2022/08/26 09:59:56;;;;;;;12.48;3.65;;;30.90;49.70;;;;;;5044931;28;20010;-77
2022/08/26 10:02:35;;;;;;;9.18;4.45;;;31.00;49.30;;;;;;5052461;28;20040;-74
2022/08/26 10:05:06;;;;;;;18.15;5.85;;;31.00;49.10;;;;;;5053077;28;20470;-75
2022/08/26 10:07:51;;;;;;;10.30;4.03;;;31.10;48.90;;;;;;5053006;28;20043;-75
2022/08/26 10:10:25;;;;;;;9.25;3.42;;;31.10;49.20;;;;;;5053162;28;20490;-75
2022/08/26 10:13:02;;;;;;;10.82;4.30;;;31.10;48.80;;;;;;5053131;28;20055;-72
2022/08/26 10:15:34;;;;;;;9.50;3.30;;;31.10;47.70;;;;;;5053316;28;20029;-73
2022/08/26 10:18:11;;;;;;;7.50;3.17;;;31.20;47.10;;;;;;5035310;28;20037;-73
2022/08/26 10:20:54;;;;;;;11.93;3.67;;;31.20;46.40;;;;;;5053127;28;20048;-71
2022/08/26 10:23:24;;;;;;;10.25;3.53;;;31.30;45.80;;;;;;5053300;28;20025;-70
2022/08/26 10:25:55;;;;;;;8.38;2.58;;;31.40;45.40;;;;;;5035146;28;20033;-76
2022/08/26 10:28:31;;;;;;;8.18;3.00;;;31.40;43.90;;;;;;5052967;28;20047;-75
2022/08/26 10:31:33;;;;;;;7.80;3.22;;;31.40;43.40;;;;;;5051754;28;20037;-74
2022/08/26 10:33:59;;;;;;;9.70;4.22;;;31.50;43.40;;;;;;5016371;28;20095;-71
2022/08/26 10:36:49;;;;;;;9.20;3.13;;;31.60;44.10;;;;;;5052458;28;20056;-71
2022/08/26 10:39:40;;;;;;;14.55;5.50;;;31.60;43.80;;;;;;5052426;28;20094;-73
2022/08/26 10:42:26;;;;;;;9.90;3.50;;;31.60;43.60;;;;;;5052599;28;20025;-71
2022/08/26 10:44:57;;;;;;;6.75;3.30;;;31.70;43.70;;;;;;5052597;28;20340;-73
2022/08/26 10:47:40;;;;;;;11.38;4.60;;;31.70;44.00;;;;;;5052691;28;20017;-72
2022/08/26 10:50:06;;;;;;;12.63;4.93;;;31.70;44.50;;;;;;5034755;28;20394;-73
2022/08/26 10:52:50;;;;;;;17.90;5.25;;;31.80;44.50;;;;;;5052483;28;20039;-72
2022/08/26 10:55:34;;;;;;;18.63;7.22;;;31.80;44.40;;;;;;5052433;28;20056;-71
2022/08/26 10:58:25;;;;;;;12.55;4.85;;;31.90;44.40;;;;;;5052761;28;20400;-72
2022/08/26 11:04:17;;;;;;;27.15;5.00;;;32.00;43.80;;;;;;5052927;28;20048;-79
2022/08/26 11:06:46;;;;;;;12.68;3.65;;;32.10;44.10;;;;;;5051851;28;20033;-78
2022/08/26 11:09:41;;;;;;;8.98;4.32;;;32.20;44.20;;;;;;5035602;28;20056;-78
2022/08/26 11:12:07;;;;;;;12.50;4.60;;;32.20;43.90;;;;;;5056339;28;20032;-76
2022/08/26 11:14:36;;;;;;;10.15;3.75;;;32.30;44.50;;;;;;5057308;28;20031;-77
2022/08/26 11:17:02;;;;;;;7.95;3.40;;;32.40;44.00;;;;;;5054319;28;20048;-73
2022/08/26 11:19:38;;;;;;;4.72;3.17;;;32.40;43.70;;;;;;5034429;28;20057;-74
2022/08/26 11:22:34;;;;;;;10.98;3.60;;;32.40;43.40;;;;;;5053400;28;20037;-75
2022/08/26 11:25:08;;;;;;;9.20;3.97;;;32.40;44.20;;;;;;5056682;28;20037;-77
2022/08/26 11:27:34;;;;;;;14.82;3.78;;;32.40;46.30;;;;;;5056783;28;20508;-74
2022/08/26 11:30:35;;;;;;;7.85;3.60;;;32.30;48.10;;;;;;5056806;28;20053;-75
2022/08/26 11:33:01;;;;;;;10.55;4.38;;;32.30;48.40;;;;;;5048036;28;20071;-72
2022/08/26 11:35:33;;;;;;;9.52;4.20;;;32.30;48.60;;;;;;5057072;28;20064;-75
2022/08/26 11:38:20;;;;;;;6.85;3.55;;;32.50;48.90;;;;;;5056205;28;20023;-79
2022/08/26 11:41:10;;;;;;;7.85;3.65;;;32.60;49.10;;;;;;5056248;28;20473;-76
2022/08/26 11:43:39;;;;;;;11.30;4.55;;;32.70;48.10;;;;;;5056287;28;20025;-79
2022/08/26 11:46:09;;;;;;;11.68;4.72;;;32.70;49.00;;;;;;5056578;28;20029;-79
2022/08/26 11:48:38;;;;;;;10.68;4.22;;;32.80;48.80;;;;;;5056467;28;20498;-79
2022/08/26 11:51:22;;;;;;;13.25;4.40;;;32.80;48.90;;;;;;5056454;28;20025;-79
2022/08/26 11:53:49;;;;;;;9.55;4.43;;;32.90;47.90;;;;;;5040168;28;20025;-77
2022/08/26 11:56:31;;;;;;;10.05;4.03;;;33.00;49.00;;;;;;5055830;28;20044;-75
2022/08/26 11:59:00;;;;;;;8.23;3.65;;;33.00;48.80;;;;;;5055917;28;20492;-77
2022/08/26 12:01:30;;;;;;;10.77;4.13;;;33.10;48.50;;;;;;5055773;28;20043;-76
2022/08/26 12:03:57;;;;;;;6.45;3.50;;;33.20;48.10;;;;;;5054454;28;20110;-75
2022/08/26 12:06:35;;;;;;;8.60;4.47;;;33.10;47.60;;;;;;5055689;28;20033;-75
2022/08/26 12:09:10;;;;;;;7.20;3.75;;;33.10;46.90;;;;;;5055239;28;20120;-77
2022/08/26 12:11:38;;;;;;;7.13;3.75;;;33.20;46.90;;;;;;5038707;28;20037;-77
2022/08/26 12:14:19;;;;;;;12.73;3.78;;;33.20;47.30;;;;;;5038083;28;20040;-72
2022/08/26 12:16:45;;;;;;;10.13;4.43;;;33.20;46.70;;;;;;5055416;28;20029;-72
2022/08/26 12:19:33;;;;;;;13.10;3.85;;;33.30;46.80;;;;;;5054348;28;20148;-72
2022/08/26 12:22:12;;;;;;;11.60;3.67;;;33.30;46.10;;;;;;5055524;28;20068;-72
2022/08/26 12:24:45;;;;;;;8.48;3.97;;;33.30;46.00;;;;;;5055521;28;20021;-70
2022/08/26 12:27:20;;;;;;;11.30;3.90;;;33.20;46.40;;;;;;5055454;28;20028;-72
2022/08/26 12:30:16;;;;;;;11.20;4.40;;;33.20;46.10;;;;;;5055471;28;20070;-73
2022/08/26 12:33:02;;;;;;;9.40;4.25;;;33.30;45.80;;;;;;5054799;28;20033;-72
2022/08/26 12:35:29;;;;;;;6.65;3.53;;;33.30;46.30;;;;;;5055144;28;20032;-76
2022/08/26 12:37:56;;;;;;;7.20;3.30;;;33.30;45.80;;;;;;5055043;28;20107;-74
2022/08/26 12:40:42;;;;;;;6.88;3.13;;;33.30;46.30;;;;;;5055020;28;20032;-76
2022/08/26 12:43:10;;;;;;;9.18;3.63;;;33.30;45.50;;;;;;5055179;28;20106;-75
2022/08/26 12:45:40;;;;;;;8.57;3.30;;;33.30;45.80;;;;;;5055111;28;20017;-75
2022/08/26 12:48:09;;;;;;;6.28;3.40;;;33.30;45.70;;;;;;5037503;28;20091;-75
2022/08/26 12:50:42;;;;;;;8.63;3.08;;;33.40;45.80;;;;;;5054496;28;20060;-74
2022/08/26 12:53:19;;;;;;;6.13;3.33;;;33.40;45.70;;;;;;5054851;28;20033;-72
2022/08/26 12:55:51;;;;;;;7.43;3.42;;;33.40;45.50;;;;;;5053470;28;20041;-71
2022/08/26 12:58:20;;;;;;;5.88;3.40;;;33.50;45.90;;;;;;5054708;28;20134;-73
2022/08/26 13:01:17;;;;;;;6.05;3.42;;;33.50;45.40;;;;;;5054719;28;20025;-73
2022/08/26 13:03:44;;;;;;;9.80;3.60;;;33.50;45.10;;;;;;5051647;28;20032;-71
2022/08/26 13:06:28;;;;;;;10.27;3.33;;;33.50;45.40;;;;;;5054615;28;20025;-73